Terminal Aerodrome Forecast
Issued by NWS

Home | Current Version | Previous Version | Text Only | Print | Product List | Glossary On
Versions: 1 2 3 4 5 6 7 8 9 10 11 12 13
000
FTUS41 KPBZ 252321
TAFBVI
TAF
KBVI 252321Z 2600/2624 23007KT P6SM VCTS SCT035CB
     FM260100 24005KT P6SM FEW035
     FM260400 28004KT P6SM BKN025
     FM260800 29004KT 4SM BR BKN010
     FM261300 30003KT P6SM SCT040
      AMD NOT SKED 2602/2612=

USA.gov is the U.S. government's official web portal to all federal, state and local government web resources and services.